sensor_id;sensor_type;location;lat;lon;timestamp;temperature;humidity
27162;DHT22;54464;50.558;9.704;2023-04-24T00:00:02;10.60;99.90
27162;DHT22;54464;50.558;9.704;2023-04-24T00:02:31;10.70;99.90
27162;DHT22;54464;50.558;9.704;2023-04-24T00:04:58;10.60;99.90
27162;DHT22;54464;50.558;9.704;2023-04-24T00:07:30;10.70;99.90
27162;DHT22;54464;50.558;9.704;2023-04-24T00:09:56;10.70;99.90
27162;DHT22;54464;50.558;9.704;2023-04-24T00:12:21;10.70;99.90
27162;DHT22;54464;50.558;9.704;2023-04-24T00:14:47;10.70;99.90
27162;DHT22;54464;50.558;9.704;2023-04-24T00:17:13;10.70;99.90
27162;DHT22;54464;50.558;9.704;2023-04-24T00:19:38;10.70;99.90
27162;DHT22;54464;50.558;9.704;2023-04-24T00:22:04;10.70;99.90
27162;DHT22;54464;50.558;9.704;2023-04-24T00:24:30;10.70;99.90
27162;DHT22;54464;50.558;9.704;2023-04-24T00:26:56;10.70;99.90
27162;DHT22;54464;50.558;9.704;2023-04-24T00:29:21;10.70;99.90
27162;DHT22;54464;50.558;9.704;2023-04-24T00:31:47;10.70;99.90
27162;DHT22;54464;50.558;9.704;2023-04-24T00:34:13;10.60;99.90
27162;DHT22;54464;50.558;9.704;2023-04-24T00:36:39;10.60;99.90
27162;DHT22;54464;50.558;9.704;2023-04-24T00:39:04;10.60;99.90
27162;DHT22;54464;50.558;9.704;2023-04-24T00:41:30;10.60;99.90
27162;DHT22;54464;50.558;9.704;2023-04-24T00:43:56;10.60;99.90
27162;DHT22;54464;50.558;9.704;2023-04-24T00:46:21;10.60;99.90
27162;DHT22;54464;50.558;9.704;2023-04-24T00:48:47;10.60;99.90
27162;DHT22;54464;50.558;9.704;2023-04-24T00:51:13;10.60;99.90
27162;DHT22;54464;50.558;9.704;2023-04-24T00:53:38;10.60;99.90
27162;DHT22;54464;50.558;9.704;2023-04-24T00:56:04;10.60;99.90
27162;DHT22;54464;50.558;9.704;2023-04-24T00:58:30;10.60;99.90
27162;DHT22;54464;50.558;9.704;2023-04-24T01:00:57;10.60;99.90
27162;DHT22;54464;50.558;9.704;2023-04-24T01:03:26;10.70;99.90
27162;DHT22;54464;50.558;9.704;2023-04-24T01:05:54;10.70;99.90
27162;DHT22;54464;50.558;9.704;2023-04-24T01:08:22;10.70;99.90
27162;DHT22;54464;50.558;9.704;2023-04-24T01:10:51;10.70;99.90
27162;DHT22;54464;50.558;9.704;2023-04-24T01:13:17;10.70;99.90
27162;DHT22;54464;50.558;9.704;2023-04-24T01:15:43;10.70;99.90
27162;DHT22;54464;50.558;9.704;2023-04-24T01:18:09;10.70;99.90
27162;DHT22;54464;50.558;9.704;2023-04-24T01:20:35;10.70;99.90
27162;DHT22;54464;50.558;9.704;2023-04-24T01:23:02;10.70;99.90
27162;DHT22;54464;50.558;9.704;2023-04-24T01:25:28;10.70;99.90
27162;DHT22;54464;50.558;9.704;2023-04-24T01:27:54;10.70;99.90
27162;DHT22;54464;50.558;9.704;2023-04-24T01:30:19;10.60;99.90
27162;DHT22;54464;50.558;9.704;2023-04-24T01:32:45;10.60;99.90
27162;DHT22;54464;50.558;9.704;2023-04-24T01:35:11;10.60;99.90
27162;DHT22;54464;50.558;9.704;2023-04-24T01:37:36;10.60;99.90
27162;DHT22;54464;50.558;9.704;2023-04-24T01:40:04;10.60;99.90
27162;DHT22;54464;50.558;9.704;2023-04-24T01:42:30;10.60;99.90
27162;DHT22;54464;50.558;9.704;2023-04-24T01:44:57;10.60;99.90
27162;DHT22;54464;50.558;9.704;2023-04-24T01:47:23;10.60;99.90
27162;DHT22;54464;50.558;9.704;2023-04-24T01:49:49;10.60;99.90
27162;DHT22;54464;50.558;9.704;2023-04-24T01:52:15;10.60;99.90
27162;DHT22;54464;50.558;9.704;2023-04-24T01:54:43;10.60;99.90
27162;DHT22;54464;50.558;9.704;2023-04-24T01:57:08;10.60;99.90
27162;DHT22;54464;50.558;9.704;2023-04-24T01:59:34;10.60;99.90
27162;DHT22;54464;50.558;9.704;2023-04-24T02:02:02;10.60;99.90
27162;DHT22;54464;50.558;9.704;2023-04-24T02:04:28;10.60;99.90
27162;DHT22;54464;50.558;9.704;2023-04-24T02:06:53;10.60;99.90
27162;DHT22;54464;50.558;9.704;2023-04-24T02:09:19;10.50;99.90
27162;DHT22;54464;50.558;9.704;2023-04-24T02:11:44;10.50;99.90
27162;DHT22;54464;50.558;9.704;2023-04-24T02:14:10;10.60;99.90
27162;DHT22;54464;50.558;9.704;2023-04-24T02:16:35;10.60;99.90
27162;DHT22;54464;50.558;9.704;2023-04-24T02:19:02;10.60;99.90
27162;DHT22;54464;50.558;9.704;2023-04-24T02:21:27;10.50;99.90
27162;DHT22;54464;50.558;9.704;2023-04-24T02:23:53;10.50;99.90
27162;DHT22;54464;50.558;9.704;2023-04-24T02:26:19;10.50;99.90
27162;DHT22;54464;50.558;9.704;2023-04-24T02:28:45;10.50;99.90
27162;DHT22;54464;50.558;9.704;2023-04-24T02:31:10;10.40;99.90
27162;DHT22;54464;50.558;9.704;2023-04-24T02:33:36;10.40;99.90
27162;DHT22;54464;50.558;9.704;2023-04-24T02:36:02;10.30;99.90
27162;DHT22;54464;50.558;9.704;2023-04-24T02:38:28;10.20;99.90
27162;DHT22;54464;50.558;9.704;2023-04-24T02:40:54;10.20;99.90
27162;DHT22;54464;50.558;9.704;2023-04-24T02:43:19;10.20;99.90
27162;DHT22;54464;50.558;9.704;2023-04-24T02:45:45;10.20;99.90
27162;DHT22;54464;50.558;9.704;2023-04-24T02:48:11;10.20;99.90
27162;DHT22;54464;50.558;9.704;2023-04-24T02:50:36;10.20;99.90
27162;DHT22;54464;50.558;9.704;2023-04-24T02:53:02;10.20;99.90
27162;DHT22;54464;50.558;9.704;2023-04-24T02:55:28;10.20;99.90
27162;DHT22;54464;50.558;9.704;2023-04-24T02:57:54;10.20;99.90
27162;DHT22;54464;50.558;9.704;2023-04-24T03:00:19;10.20;99.90
27162;DHT22;54464;50.558;9.704;2023-04-24T03:02:45;10.20;99.90
27162;DHT22;54464;50.558;9.704;2023-04-24T03:05:11;10.20;99.90
27162;DHT22;54464;50.558;9.704;2023-04-24T03:07:37;10.20;99.90
27162;DHT22;54464;50.558;9.704;2023-04-24T03:10:04;10.10;99.90
27162;DHT22;54464;50.558;9.704;2023-04-24T03:12:31;10.10;99.90
27162;DHT22;54464;50.558;9.704;2023-04-24T03:14:56;10.00;99.90
27162;DHT22;54464;50.558;9.704;2023-04-24T03:17:22;10.00;99.90
27162;DHT22;54464;50.558;9.704;2023-04-24T03:19:47;9.90;99.90
27162;DHT22;54464;50.558;9.704;2023-04-24T03:22:13;9.90;99.90
27162;DHT22;54464;50.558;9.704;2023-04-24T03:24:38;9.90;99.90
27162;DHT22;54464;50.558;9.704;2023-04-24T03:27:04;9.90;99.90
27162;DHT22;54464;50.558;9.704;2023-04-24T03:29:30;9.80;99.90
27162;DHT22;54464;50.558;9.704;2023-04-24T03:31:55;9.80;99.90
27162;DHT22;54464;50.558;9.704;2023-04-24T03:34:21;9.80;99.90
27162;DHT22;54464;50.558;9.704;2023-04-24T03:36:46;9.90;99.90
27162;DHT22;54464;50.558;9.704;2023-04-24T03:39:15;9.90;99.90
27162;DHT22;54464;50.558;9.704;2023-04-24T03:41:40;9.90;99.90
27162;DHT22;54464;50.558;9.704;2023-04-24T03:44:06;9.90;99.90
27162;DHT22;54464;50.558;9.704;2023-04-24T03:46:32;9.90;99.90
27162;DHT22;54464;50.558;9.704;2023-04-24T03:48:57;9.90;99.90
27162;DHT22;54464;50.558;9.704;2023-04-24T03:51:23;9.90;99.90
27162;DHT22;54464;50.558;9.704;2023-04-24T03:53:49;9.90;99.90
27162;DHT22;54464;50.558;9.704;2023-04-24T03:56:14;9.90;99.90
27162;DHT22;54464;50.558;9.704;2023-04-24T03:58:40;9.90;99.90
27162;DHT22;54464;50.558;9.704;2023-04-24T04:01:06;10.00;99.90
27162;DHT22;54464;50.558;9.704;2023-04-24T04:03:31;10.00;99.90
27162;DHT22;54464;50.558;9.704;2023-04-24T04:05:57;10.00;99.90
27162;DHT22;54464;50.558;9.704;2023-04-24T04:08:23;10.00;99.90
27162;DHT22;54464;50.558;9.704;2023-04-24T04:10:48;10.00;99.90
27162;DHT22;54464;50.558;9.704;2023-04-24T04:13:14;10.00;99.90
27162;DHT22;54464;50.558;9.704;2023-04-24T04:15:39;10.10;99.90
27162;DHT22;54464;50.558;9.704;2023-04-24T04:18:05;10.00;99.90
27162;DHT22;54464;50.558;9.704;2023-04-24T04:20:31;10.10;99.90
27162;DHT22;54464;50.558;9.704;2023-04-24T04:22:56;10.10;99.90
27162;DHT22;54464;50.558;9.704;2023-04-24T04:25:22;10.10;99.90
27162;DHT22;54464;50.558;9.704;2023-04-24T04:27:48;10.10;99.90
27162;DHT22;54464;50.558;9.704;2023-04-24T04:30:14;10.10;99.90
27162;DHT22;54464;50.558;9.704;2023-04-24T04:32:40;10.10;99.90
27162;DHT22;54464;50.558;9.704;2023-04-24T04:35:06;10.10;99.90
27162;DHT22;54464;50.558;9.704;2023-04-24T04:37:32;10.10;99.90
27162;DHT22;54464;50.558;9.704;2023-04-24T04:39:59;10.20;99.90
27162;DHT22;54464;50.558;9.704;2023-04-24T04:42:25;10.20;99.90
27162;DHT22;54464;50.558;9.704;2023-04-24T04:44:51;10.20;99.90
27162;DHT22;54464;50.558;9.704;2023-04-24T04:47:17;10.10;99.90
27162;DHT22;54464;50.558;9.704;2023-04-24T04:49:43;10.10;99.90
27162;DHT22;54464;50.558;9.704;2023-04-24T04:52:09;10.10;99.90
27162;DHT22;54464;50.558;9.704;2023-04-24T04:54:35;10.10;99.90
27162;DHT22;54464;50.558;9.704;2023-04-24T04:57:00;10.10;99.90
27162;DHT22;54464;50.558;9.704;2023-04-24T04:59:27;10.00;99.90
27162;DHT22;54464;50.558;9.704;2023-04-24T05:01:52;10.00;99.90
27162;DHT22;54464;50.558;9.704;2023-04-24T05:04:18;10.00;99.90
27162;DHT22;54464;50.558;9.704;2023-04-24T05:06:43;10.00;99.90
27162;DHT22;54464;50.558;9.704;2023-04-24T05:09:12;10.00;99.90
27162;DHT22;54464;50.558;9.704;2023-04-24T05:11:38;10.00;99.90
27162;DHT22;54464;50.558;9.704;2023-04-24T05:14:03;9.90;99.90
27162;DHT22;54464;50.558;9.704;2023-04-24T05:16:29;9.90;99.90
27162;DHT22;54464;50.558;9.704;2023-04-24T05:18:56;9.90;99.90
27162;DHT22;54464;50.558;9.704;2023-04-24T05:21:21;9.80;99.90
27162;DHT22;54464;50.558;9.704;2023-04-24T05:23:47;9.80;99.90
27162;DHT22;54464;50.558;9.704;2023-04-24T05:26:13;9.70;99.90
27162;DHT22;54464;50.558;9.704;2023-04-24T05:28:39;9.70;99.90
27162;DHT22;54464;50.558;9.704;2023-04-24T05:31:05;9.70;99.90
27162;DHT22;54464;50.558;9.704;2023-04-24T05:33:31;9.70;99.90
27162;DHT22;54464;50.558;9.704;2023-04-24T05:35:57;9.70;99.90
27162;DHT22;54464;50.558;9.704;2023-04-24T05:38:23;9.70;99.90
27162;DHT22;54464;50.558;9.704;2023-04-24T05:40:48;9.60;99.90
27162;DHT22;54464;50.558;9.704;2023-04-24T05:43:14;9.70;99.90
27162;DHT22;54464;50.558;9.704;2023-04-24T05:45:40;9.70;99.90
27162;DHT22;54464;50.558;9.704;2023-04-24T05:48:05;9.70;99.90
27162;DHT22;54464;50.558;9.704;2023-04-24T05:50:31;9.70;99.90
27162;DHT22;54464;50.558;9.704;2023-04-24T05:52:57;9.70;99.90
27162;DHT22;54464;50.558;9.704;2023-04-24T05:55:24;9.60;99.90
27162;DHT22;54464;50.558;9.704;2023-04-24T05:57:50;9.60;99.90
